createdAt,value
2023-06-23T00:00:24.426Z,7.50
2023-06-23T00:01:35.908Z,7.13
2023-06-23T00:02:47.476Z,7.87
2023-06-23T00:04:00.314Z,8.03
2023-06-23T00:05:12.280Z,6.63
2023-06-23T00:06:23.970Z,6.77
2023-06-23T00:07:36.418Z,7.37
2023-06-23T00:08:48.975Z,7.90
2023-06-23T00:10:00.524Z,6.53
2023-06-23T00:11:12.151Z,6.87
2023-06-23T00:12:25.435Z,7.30
2023-06-23T00:13:37.494Z,8.17
2023-06-23T00:14:48.955Z,7.40
2023-06-23T00:16:00.440Z,8.20
2023-06-23T00:17:11.906Z,7.60
2023-06-23T00:18:23.395Z,7.43
2023-06-23T00:19:34.944Z,7.10
2023-06-23T00:20:46.405Z,7.17
2023-06-23T00:21:57.916Z,8.37
2023-06-23T00:23:09.439Z,8.03
2023-06-23T00:24:20.891Z,7.33
2023-06-23T00:25:32.569Z,7.00
2023-06-23T00:26:44.236Z,7.43
2023-06-23T00:27:55.803Z,7.03
2023-06-23T00:29:07.290Z,6.43
2023-06-23T00:30:18.784Z,7.97
2023-06-23T00:31:30.295Z,6.83
2023-06-23T00:32:42.287Z,7.07
2023-06-23T00:33:54.062Z,7.40
2023-06-23T00:35:06.735Z,7.23
2023-06-23T00:36:18.278Z,6.90
2023-06-23T00:37:31.252Z,7.97
2023-06-23T00:38:42.883Z,7.43
2023-06-23T00:39:54.403Z,6.97
2023-06-23T00:41:05.962Z,7.23
2023-06-23T00:42:17.440Z,7.13
2023-06-23T00:43:31.899Z,6.67
2023-06-23T00:44:43.369Z,7.33
2023-06-23T00:45:54.907Z,7.57
2023-06-23T00:47:06.823Z,7.13
2023-06-23T00:48:19.221Z,7.50
2023-06-23T00:49:31.020Z,8.23
2023-06-23T00:50:43.246Z,7.30
2023-06-23T00:51:54.934Z,7.40
2023-06-23T00:53:06.565Z,7.93
2023-06-23T00:54:18.104Z,7.60
2023-06-23T00:55:30.227Z,7.10
2023-06-23T00:56:42.188Z,7.43
2023-06-23T00:57:55.510Z,7.43
2023-06-23T00:59:07.037Z,7.73
2023-06-23T01:00:19.742Z,7.60
2023-06-23T01:01:33.949Z,7.33
2023-06-23T01:02:46.262Z,6.33
2023-06-23T01:04:01.005Z,6.53
2023-06-23T01:05:12.802Z,7.10
2023-06-23T01:06:27.061Z,7.53
2023-06-23T01:07:59.005Z,7.27
2023-06-23T01:09:28.994Z,7.13
2023-06-23T01:10:57.339Z,7.57
2023-06-23T01:12:14.370Z,7.30
2023-06-23T01:13:25.879Z,7.83
2023-06-23T01:14:40.208Z,7.50
2023-06-23T01:16:06.557Z,6.80
2023-06-23T01:17:22.404Z,7.63
2023-06-23T01:18:39.844Z,6.53
2023-06-23T01:19:56.132Z,7.97
2023-06-23T01:21:09.962Z,7.40
2023-06-23T01:22:33.764Z,6.93
2023-06-23T01:23:46.891Z,7.13
2023-06-23T01:25:15.463Z,7.43
2023-06-23T01:26:44.667Z,7.27
2023-06-23T01:28:19.216Z,6.70
2023-06-23T01:29:32.823Z,6.93
2023-06-23T01:30:45.757Z,8.03
2023-06-23T01:32:06.615Z,7.20
2023-06-23T01:33:22.746Z,7.33
2023-06-23T01:34:44.932Z,7.10
2023-06-23T01:35:59.262Z,7.07
2023-06-23T01:37:16.056Z,7.23
2023-06-23T01:38:31.914Z,7.10
2023-06-23T01:39:44.640Z,6.70
2023-06-23T01:40:58.263Z,7.87
2023-06-23T01:42:11.994Z,7.70
2023-06-23T01:43:30.729Z,7.30
2023-06-23T01:44:50.680Z,7.13
2023-06-23T01:46:12.892Z,7.10
2023-06-23T01:47:29.343Z,7.00
2023-06-23T01:48:42.995Z,6.97
2023-06-23T01:49:55.820Z,7.37
2023-06-23T01:51:07.868Z,7.40
2023-06-23T01:52:20.396Z,6.47
2023-06-23T01:53:32.923Z,8.10
2023-06-23T01:54:46.313Z,7.40
2023-06-23T01:55:58.891Z,7.70
2023-06-23T01:57:12.397Z,7.37
2023-06-23T01:58:24.463Z,7.50
2023-06-23T01:59:37.434Z,7.33
2023-06-23T02:00:50.038Z,7.30
2023-06-23T02:02:02.135Z,6.57
2023-06-23T02:03:14.307Z,7.23
2023-06-23T02:04:26.675Z,7.60
2023-06-23T02:05:39.051Z,7.20
2023-06-23T02:06:51.552Z,7.57
2023-06-23T02:08:03.499Z,7.40
2023-06-23T02:09:26.704Z,7.03
2023-06-23T02:10:38.560Z,8.23
2023-06-23T02:11:50.484Z,7.63
2023-06-23T02:13:02.367Z,7.17
2023-06-23T02:14:14.712Z,6.03
2023-06-23T02:15:27.687Z,6.03
2023-06-23T02:16:40.499Z,6.73
2023-06-23T02:17:52.896Z,7.20
2023-06-23T02:19:05.121Z,7.90
2023-06-23T02:20:17.785Z,6.10
2023-06-23T02:21:30.237Z,6.83
2023-06-23T02:22:43.856Z,7.53
2023-06-23T02:23:55.580Z,6.63
2023-06-23T02:25:07.741Z,7.33
2023-06-23T02:26:20.046Z,7.77
2023-06-23T02:27:31.803Z,7.47
2023-06-23T02:28:48.282Z,7.27
2023-06-23T02:30:00.042Z,7.87
2023-06-23T02:31:11.587Z,7.07
2023-06-23T02:32:23.107Z,6.73
2023-06-23T02:33:34.665Z,7.50
2023-06-23T02:34:49.496Z,7.20
2023-06-23T02:36:02.283Z,7.37
2023-06-23T02:37:18.034Z,6.90
2023-06-23T02:38:30.913Z,7.70
2023-06-23T02:39:43.953Z,7.27
2023-06-23T02:40:56.301Z,7.37
2023-06-23T02:42:08.473Z,6.70
2023-06-23T02:43:34.413Z,7.17
2023-06-23T02:44:54.479Z,6.77
2023-06-23T02:46:06.668Z,7.60
2023-06-23T02:47:20.205Z,7.20
2023-06-23T02:48:34.664Z,7.03
2023-06-23T02:49:46.429Z,7.90
2023-06-23T02:50:59.417Z,7.60
2023-06-23T02:52:11.863Z,7.00
2023-06-23T02:53:25.438Z,7.27
2023-06-23T02:54:43.316Z,7.50
2023-06-23T02:56:02.178Z,7.53
2023-06-23T02:57:14.777Z,7.30
2023-06-23T02:58:27.975Z,7.40
2023-06-23T02:59:41.109Z,7.90
2023-06-23T03:00:53.685Z,6.70
2023-06-23T03:02:06.130Z,7.30
2023-06-23T03:03:18.057Z,6.37
2023-06-23T03:04:31.614Z,7.70
2023-06-23T03:05:44.417Z,7.93
2023-06-23T03:06:55.955Z,6.80
2023-06-23T03:08:07.605Z,7.57
2023-06-23T03:09:19.119Z,6.80
2023-06-23T03:10:30.942Z,6.80
2023-06-23T03:11:42.481Z,7.10
2023-06-23T03:12:54.144Z,7.07
2023-06-23T03:14:06.149Z,6.53
2023-06-23T03:15:17.744Z,6.77
2023-06-23T03:16:49.067Z,7.10
2023-06-23T03:18:03.883Z,7.53
2023-06-23T03:19:21.644Z,6.70
2023-06-23T03:20:36.675Z,6.40
2023-06-23T03:21:51.992Z,7.10
2023-06-23T03:23:07.418Z,7.40
2023-06-23T03:24:21.078Z,7.27
2023-06-23T03:25:32.925Z,7.50
2023-06-23T03:26:47.504Z,8.03
2023-06-23T03:28:04.052Z,7.10
2023-06-23T03:29:16.215Z,7.73
2023-06-23T03:30:46.531Z,6.97
2023-06-23T03:32:02.596Z,7.67
2023-06-23T03:33:22.762Z,7.63
2023-06-23T03:34:40.634Z,6.90
2023-06-23T03:35:54.026Z,6.33
2023-06-23T03:37:06.707Z,7.83
2023-06-23T03:38:19.752Z,7.27
2023-06-23T03:39:35.822Z,6.80
2023-06-23T03:40:50.155Z,6.97
2023-06-23T03:42:02.556Z,6.10
2023-06-23T03:43:27.933Z,7.10
2023-06-23T03:44:45.069Z,6.43
2023-06-23T03:46:02.140Z,7.17
2023-06-23T03:47:20.558Z,6.80
2023-06-23T03:48:33.953Z,7.40
2023-06-23T03:50:02.195Z,6.20
2023-06-23T03:51:14.849Z,7.17
2023-06-23T03:52:27.459Z,7.53
2023-06-23T03:53:39.508Z,7.23
2023-06-23T03:54:53.248Z,8.03
2023-06-23T03:56:05.720Z,8.00
2023-06-23T03:57:18.862Z,8.83
2023-06-23T03:58:31.400Z,7.13
2023-06-23T03:59:43.659Z,7.13
2023-06-23T04:00:55.573Z,7.73
2023-06-23T04:02:08.017Z,7.27
2023-06-23T04:03:20.466Z,6.70
2023-06-23T04:04:33.119Z,6.97
2023-06-23T04:05:45.293Z,6.80
2023-06-23T04:06:57.630Z,7.17
2023-06-23T04:08:10.387Z,6.90
2023-06-23T04:09:22.936Z,6.43
2023-06-23T04:10:35.346Z,6.47
2023-06-23T04:11:48.106Z,6.93
2023-06-23T04:13:00.679Z,6.40
2023-06-23T04:14:14.337Z,6.27
2023-06-23T04:15:26.959Z,6.17
2023-06-23T04:16:39.513Z,6.80
2023-06-23T04:17:52.392Z,7.00
2023-06-23T04:19:04.177Z,7.33
2023-06-23T04:20:15.923Z,7.03
2023-06-23T04:21:27.655Z,8.37
2023-06-23T04:22:41.079Z,8.13
2023-06-23T04:23:52.983Z,8.57
2023-06-23T04:25:05.716Z,8.17
2023-06-23T04:26:17.596Z,7.67
2023-06-23T04:27:30.342Z,8.30
2023-06-23T04:28:44.273Z,8.97
2023-06-23T04:29:57.040Z,9.17
2023-06-23T04:31:09.656Z,8.47
2023-06-23T04:32:23.091Z,8.37
2023-06-23T04:33:34.869Z,7.70
2023-06-23T04:34:46.445Z,8.13
2023-06-23T04:36:00.701Z,8.90
2023-06-23T04:37:23.004Z,8.30
2023-06-23T04:38:35.937Z,8.30
2023-06-23T04:39:53.107Z,7.53
2023-06-23T04:41:08.531Z,8.00
2023-06-23T04:42:24.718Z,8.10
2023-06-23T04:43:39.259Z,7.47
2023-06-23T04:44:53.384Z,8.37
2023-06-23T04:46:08.515Z,8.33
2023-06-23T04:47:21.602Z,7.93
2023-06-23T04:48:36.672Z,8.03
2023-06-23T04:49:50.792Z,7.80
2023-06-23T04:51:03.371Z,8.53
2023-06-23T04:52:17.708Z,8.23
2023-06-23T04:53:32.513Z,8.50
2023-06-23T04:54:45.690Z,8.87
2023-06-23T04:55:59.718Z,8.87
2023-06-23T04:57:13.527Z,8.20
2023-06-23T04:58:27.444Z,9.50
2023-06-23T04:59:42.329Z,8.83
2023-06-23T05:00:55.260Z,8.60
2023-06-23T05:02:07.325Z,8.90
2023-06-23T05:03:19.893Z,9.37
2023-06-23T05:04:33.541Z,8.40
2023-06-23T05:05:45.860Z,8.80
2023-06-23T05:06:58.068Z,9.53
2023-06-23T05:08:10.763Z,9.67
2023-06-23T05:09:22.956Z,7.93
2023-06-23T05:10:35.623Z,9.50
2023-06-23T05:11:48.608Z,8.63
2023-06-23T05:13:01.818Z,8.27
2023-06-23T05:14:14.012Z,10.03
2023-06-23T05:15:26.527Z,8.90
2023-06-23T05:16:38.949Z,9.53
2023-06-23T05:17:52.685Z,8.83
2023-06-23T05:19:05.134Z,8.83
2023-06-23T05:20:18.972Z,9.33
2023-06-23T05:21:30.771Z,9.03
2023-06-23T05:22:42.677Z,8.90
2023-06-23T05:23:55.713Z,9.20
2023-06-23T05:25:08.132Z,8.77
2023-06-23T05:26:20.394Z,8.70
2023-06-23T05:27:33.716Z,7.93
2023-06-23T05:28:46.860Z,8.40
2023-06-23T05:29:58.876Z,9.43
2023-06-23T05:31:10.918Z,8.93
2023-06-23T05:32:23.592Z,7.80
2023-06-23T05:33:36.830Z,8.20
2023-06-23T05:34:50.763Z,8.27
2023-06-23T05:36:02.876Z,9.23
2023-06-23T05:37:15.674Z,8.50
2023-06-23T05:38:27.929Z,8.30
2023-06-23T05:39:40.114Z,7.90
2023-06-23T05:40:51.599Z,8.10
2023-06-23T05:42:03.180Z,8.27
2023-06-23T05:43:14.724Z,7.53
2023-06-23T05:44:26.209Z,7.73
2023-06-23T05:45:38.007Z,8.07
2023-06-23T05:46:50.298Z,7.87
2023-06-23T05:48:20.283Z,8.00
2023-06-23T05:49:36.083Z,8.97
2023-06-23T05:50:48.311Z,7.73
2023-06-23T05:52:02.114Z,8.77
2023-06-23T05:53:16.606Z,8.73
2023-06-23T05:54:30.514Z,8.70
2023-06-23T05:55:47.191Z,8.17
2023-06-23T05:57:01.399Z,9.23
2023-06-23T05:58:13.711Z,9.17
2023-06-23T05:59:26.989Z,8.50
2023-06-23T06:00:41.445Z,8.87
2023-06-23T06:01:56.686Z,8.80
2023-06-23T06:03:10.897Z,9.30
2023-06-23T06:04:24.974Z,8.87
2023-06-23T06:05:37.158Z,8.67
2023-06-23T06:06:49.704Z,8.53
2023-06-23T06:08:01.765Z,8.57
2023-06-23T06:09:14.194Z,8.87
2023-06-23T06:10:27.623Z,8.33
2023-06-23T06:11:40.010Z,8.80
2023-06-23T06:12:52.460Z,8.60
2023-06-23T06:14:05.024Z,8.37
2023-06-23T06:15:17.933Z,8.97
2023-06-23T06:16:30.095Z,7.83
2023-06-23T06:17:42.539Z,9.03
2023-06-23T06:18:54.694Z,7.73
2023-06-23T06:20:06.841Z,7.90
2023-06-23T06:21:18.872Z,7.67
2023-06-23T06:22:32.259Z,8.27
2023-06-23T06:23:44.234Z,8.57
2023-06-23T06:24:56.529Z,8.63
2023-06-23T06:26:08.284Z,8.13
2023-06-23T06:27:20.650Z,8.23
2023-06-23T06:28:33.401Z,7.67
2023-06-23T06:29:45.067Z,8.17
2023-06-23T06:30:58.345Z,7.90
2023-06-23T06:32:10.596Z,7.70
2023-06-23T06:33:22.876Z,8.33
2023-06-23T06:34:35.118Z,7.93
2023-06-23T06:35:48.566Z,8.87
2023-06-23T06:37:01.518Z,8.60
2023-06-23T06:38:13.284Z,8.07
2023-06-23T06:39:25.690Z,8.37
2023-06-23T06:40:37.690Z,8.90
2023-06-23T06:41:50.057Z,8.23
2023-06-23T06:43:01.588Z,8.20
2023-06-23T06:44:13.138Z,9.10
2023-06-23T06:45:24.638Z,8.80
2023-06-23T06:46:39.411Z,8.17
2023-06-23T06:47:51.606Z,8.70
2023-06-23T06:49:03.367Z,8.77
2023-06-23T06:50:15.591Z,8.53
2023-06-23T06:51:28.422Z,10.07
2023-06-23T06:52:45.548Z,8.27
2023-06-23T06:53:57.819Z,8.03
2023-06-23T06:55:15.877Z,8.13
2023-06-23T06:56:27.664Z,8.30
2023-06-23T06:57:39.472Z,9.10
2023-06-23T06:58:51.684Z,8.13
2023-06-23T07:00:07.093Z,8.73
2023-06-23T07:01:18.996Z,8.17
2023-06-23T07:02:31.029Z,7.90
2023-06-23T07:03:44.168Z,8.83
2023-06-23T07:04:55.760Z,8.88
2023-06-23T07:06:07.393Z,7.60
2023-06-23T07:07:18.848Z,8.67
2023-06-23T07:08:30.350Z,7.95
2023-06-23T07:09:41.885Z,7.72
2023-06-23T07:10:53.393Z,8.63
2023-06-23T07:12:07.162Z,8.13
2023-06-23T07:13:18.806Z,8.52
2023-06-23T07:14:30.282Z,7.75
2023-06-23T07:15:41.862Z,8.00
2023-06-23T07:16:55.539Z,7.60
2023-06-23T07:18:07.155Z,7.87
2023-06-23T07:19:18.642Z,8.37
2023-06-23T07:20:30.417Z,8.37
2023-06-23T07:21:42.298Z,7.72
2023-06-23T07:22:53.843Z,8.27
2023-06-23T07:24:08.291Z,7.15
2023-06-23T07:25:19.770Z,7.97
2023-06-23T07:26:31.294Z,8.95
2023-06-23T07:27:42.764Z,8.45
2023-06-23T07:28:54.588Z,7.68
2023-06-23T07:30:06.446Z,8.00
2023-06-23T07:31:18.119Z,9.15
2023-06-23T07:32:29.648Z,8.40
2023-06-23T07:33:42.395Z,7.85
2023-06-23T07:34:54.046Z,8.35
2023-06-23T07:36:05.654Z,9.07
2023-06-23T07:37:17.214Z,7.50
2023-06-23T07:38:29.031Z,7.40
2023-06-23T07:39:40.597Z,7.20
2023-06-23T07:40:52.323Z,8.25
2023-06-23T07:42:04.236Z,8.27
2023-06-23T07:43:15.843Z,8.02
2023-06-23T07:44:27.434Z,8.27
2023-06-23T07:45:38.994Z,8.23
2023-06-23T07:46:50.681Z,7.68
2023-06-23T07:48:02.280Z,8.35
2023-06-23T07:49:13.815Z,7.88
2023-06-23T07:50:27.399Z,7.70
2023-06-23T07:51:38.925Z,7.63
2023-06-23T07:52:54.334Z,7.75
2023-06-23T07:54:07.641Z,8.43
2023-06-23T07:55:20.611Z,8.75
2023-06-23T07:56:32.151Z,8.38
2023-06-23T07:57:43.676Z,7.80
2023-06-23T07:58:55.217Z,7.65
2023-06-23T08:00:08.736Z,7.53
2023-06-23T08:01:20.236Z,7.72
2023-06-23T08:02:31.807Z,7.47
2023-06-23T08:03:47.739Z,7.57
2023-06-23T08:04:59.519Z,7.82
2023-06-23T08:06:11.185Z,8.07
2023-06-23T08:07:22.719Z,7.90
2023-06-23T08:08:34.516Z,7.97
2023-06-23T08:09:46.155Z,7.88
2023-06-23T08:10:57.657Z,7.72
2023-06-23T08:12:09.433Z,7.38
2023-06-23T08:13:21.308Z,8.30
2023-06-23T08:14:32.833Z,7.82
2023-06-23T08:15:44.427Z,6.90
2023-06-23T08:16:56.106Z,8.30
2023-06-23T08:18:07.834Z,7.97
2023-06-23T08:19:23.130Z,7.78
2023-06-23T08:20:34.752Z,7.75
2023-06-23T08:21:46.309Z,8.18
2023-06-23T08:22:57.791Z,7.82
2023-06-23T08:24:09.306Z,8.02
2023-06-23T08:25:20.816Z,8.23
2023-06-23T08:26:33.403Z,7.53
2023-06-23T08:27:45.017Z,8.63
2023-06-23T08:28:56.532Z,7.30
2023-06-23T08:30:08.304Z,7.40
2023-06-23T08:31:19.811Z,7.25
2023-06-23T08:32:31.341Z,7.00
2023-06-23T08:33:44.284Z,7.45
2023-06-23T08:34:55.808Z,6.75
2023-06-23T08:36:07.750Z,6.90
2023-06-23T08:37:19.262Z,7.60
2023-06-23T08:38:30.952Z,7.57
2023-06-23T08:39:42.610Z,7.03
2023-06-23T08:40:55.595Z,6.82
2023-06-23T08:42:07.443Z,7.53
2023-06-23T08:43:25.208Z,7.45
2023-06-23T08:44:37.351Z,7.55
2023-06-23T08:45:51.447Z,7.25
2023-06-23T08:47:07.131Z,7.10
2023-06-23T08:48:19.567Z,6.50
2023-06-23T08:49:35.699Z,6.57
2023-06-23T08:50:47.736Z,7.22
2023-06-23T08:51:59.661Z,7.13
2023-06-23T08:53:11.383Z,7.20
2023-06-23T08:54:23.171Z,7.88
2023-06-23T08:55:35.077Z,6.97
2023-06-23T08:56:47.137Z,6.70
2023-06-23T08:58:01.531Z,7.57
2023-06-23T08:59:13.844Z,7.22
2023-06-23T09:00:25.437Z,7.70
2023-06-23T09:01:37.405Z,7.22
2023-06-23T09:02:49.085Z,6.38
2023-06-23T09:04:01.492Z,6.68
2023-06-23T09:05:13.015Z,6.85
2023-06-23T09:06:24.622Z,6.50
2023-06-23T09:07:36.121Z,6.22
2023-06-23T09:08:47.597Z,6.50
2023-06-23T09:09:59.264Z,6.13
2023-06-23T09:11:10.806Z,6.45
2023-06-23T09:12:23.214Z,6.53
2023-06-23T09:13:41.862Z,7.05
2023-06-23T09:14:53.571Z,7.22
2023-06-23T09:16:05.545Z,6.32
2023-06-23T09:17:17.961Z,6.13
2023-06-23T09:18:30.883Z,7.28
2023-06-23T09:19:43.777Z,6.97
2023-06-23T09:20:55.410Z,6.15
2023-06-23T09:22:11.391Z,5.78
2023-06-23T09:23:23.898Z,6.30
2023-06-23T09:24:42.550Z,5.50
2023-06-23T09:25:59.820Z,6.00
2023-06-23T09:27:12.050Z,6.07
2023-06-23T09:28:26.458Z,5.55
2023-06-23T09:29:41.102Z,5.35
2023-06-23T09:30:53.596Z,5.70
2023-06-23T09:32:05.552Z,6.35
2023-06-23T09:33:20.835Z,5.68
2023-06-23T09:34:35.177Z,5.53
2023-06-23T09:35:56.895Z,5.72
2023-06-23T09:37:12.468Z,6.47
2023-06-23T09:38:25.304Z,5.10
2023-06-23T09:39:37.545Z,6.85
2023-06-23T09:40:49.534Z,4.65
2023-06-23T09:42:01.015Z,5.43
2023-06-23T09:43:13.641Z,5.47
2023-06-23T09:44:35.354Z,5.53
2023-06-23T09:45:46.928Z,5.28
2023-06-23T09:47:02.119Z,5.60
2023-06-23T09:48:17.853Z,5.95
2023-06-23T09:49:29.551Z,5.60
2023-06-23T09:50:41.121Z,5.22
2023-06-23T09:51:52.705Z,5.47
2023-06-23T09:53:05.440Z,6.10
2023-06-23T09:54:30.913Z,5.03
2023-06-23T09:55:45.380Z,6.38
2023-06-23T09:57:04.144Z,5.60
2023-06-23T09:58:17.107Z,5.78
2023-06-23T09:59:31.119Z,5.78
2023-06-23T10:00:42.707Z,4.97
2023-06-23T10:01:54.267Z,5.75
2023-06-23T10:03:05.989Z,5.38
2023-06-23T10:04:17.858Z,5.47
2023-06-23T10:05:36.748Z,5.43
2023-06-23T10:06:48.636Z,5.68
2023-06-23T10:08:08.054Z,6.45
2023-06-23T10:09:23.617Z,5.88
2023-06-23T10:10:40.554Z,5.95
2023-06-23T10:11:52.364Z,5.50
2023-06-23T10:13:03.910Z,6.40
2023-06-23T10:14:16.693Z,6.13
2023-06-23T10:15:30.212Z,5.38
2023-06-23T10:16:42.338Z,5.97
2023-06-23T10:17:53.979Z,5.43
2023-06-23T10:19:05.765Z,5.20
2023-06-23T10:20:17.432Z,5.32
2023-06-23T10:21:29.664Z,5.93
2023-06-23T10:22:41.704Z,6.20
2023-06-23T10:23:58.661Z,5.68
2023-06-23T10:25:13.050Z,5.50
2023-06-23T10:26:24.863Z,5.95
2023-06-23T10:27:37.234Z,5.38
2023-06-23T10:28:49.964Z,4.88
2023-06-23T10:30:03.440Z,5.63
2023-06-23T10:31:15.067Z,5.32
2023-06-23T10:32:27.601Z,6.00
2023-06-23T10:33:39.759Z,5.18
2023-06-23T10:34:52.206Z,6.57
2023-06-23T10:36:07.417Z,5.25
2023-06-23T10:37:35.325Z,5.85
2023-06-23T10:38:55.930Z,4.80
2023-06-23T10:40:09.221Z,5.32
2023-06-23T10:41:21.848Z,5.88
2023-06-23T10:42:35.487Z,5.93
2023-06-23T10:43:48.303Z,5.43
2023-06-23T10:45:00.064Z,5.38
2023-06-23T10:46:12.126Z,5.47
2023-06-23T10:47:23.663Z,5.93
2023-06-23T10:48:35.482Z,6.15
2023-06-23T10:49:47.558Z,5.05
2023-06-23T10:50:59.932Z,4.95
2023-06-23T10:52:11.867Z,5.57
2023-06-23T10:53:32.517Z,5.65
2023-06-23T10:54:44.476Z,5.35
2023-06-23T10:56:07.315Z,5.70
2023-06-23T10:57:20.426Z,5.35
2023-06-23T10:58:47.305Z,5.75
2023-06-23T10:59:59.913Z,5.75
2023-06-23T11:01:11.420Z,5.50
2023-06-23T11:02:24.328Z,5.78
2023-06-23T11:03:37.207Z,5.60
2023-06-23T11:04:52.702Z,5.30
2023-06-23T11:06:05.140Z,5.22
2023-06-23T11:07:16.863Z,5.30
2023-06-23T11:08:29.438Z,4.65
2023-06-23T11:09:56.406Z,5.65
2023-06-23T11:11:09.035Z,4.75
2023-06-23T11:12:30.048Z,5.25
2023-06-23T11:13:45.807Z,5.50
2023-06-23T11:15:21.217Z,6.53
2023-06-23T11:16:39.494Z,5.13
2023-06-23T11:18:00.354Z,4.97
2023-06-23T11:19:27.167Z,4.88
2023-06-23T11:20:42.942Z,5.53
2023-06-23T11:22:08.396Z,5.10
2023-06-23T11:23:19.993Z,4.85
2023-06-23T11:24:33.605Z,5.25
2023-06-23T11:25:49.639Z,4.90
2023-06-23T11:27:02.391Z,5.32
2023-06-23T11:28:26.678Z,5.22
2023-06-23T11:29:38.181Z,5.20
2023-06-23T11:30:54.197Z,4.57
2023-06-23T11:32:07.140Z,4.45
2023-06-23T11:33:28.448Z,4.78
2023-06-23T11:34:53.187Z,4.75
2023-06-23T11:36:05.843Z,4.90
2023-06-23T11:37:17.706Z,5.55
2023-06-23T11:38:30.037Z,5.38
2023-06-23T11:39:41.819Z,4.38
2023-06-23T11:40:53.679Z,4.82
2023-06-23T11:42:05.433Z,4.55
2023-06-23T11:43:25.339Z,5.32
2023-06-23T11:44:38.162Z,4.90
2023-06-23T11:45:53.393Z,4.55
2023-06-23T11:47:05.255Z,5.10
2023-06-23T11:48:16.825Z,5.57
2023-06-23T11:49:28.422Z,4.55
2023-06-23T11:50:43.464Z,5.40
2023-06-23T11:52:01.886Z,4.95
2023-06-23T11:53:14.980Z,5.25
2023-06-23T11:54:26.632Z,5.47
2023-06-23T11:55:38.215Z,4.63
2023-06-23T11:56:52.653Z,4.47
2023-06-23T11:58:04.917Z,4.97
2023-06-23T11:59:16.476Z,4.97
2023-06-23T12:00:28.210Z,5.57
2023-06-23T12:01:39.873Z,4.90
2023-06-23T12:02:51.943Z,5.88
2023-06-23T12:04:03.629Z,5.60
2023-06-23T12:05:16.445Z,6.45
2023-06-23T12:06:28.382Z,5.90
2023-06-23T12:07:40.035Z,6.03
2023-06-23T12:08:52.433Z,5.53
2023-06-23T12:10:04.113Z,5.85
2023-06-23T12:11:15.628Z,6.20
2023-06-23T12:12:28.609Z,6.07
2023-06-23T12:13:40.153Z,5.68
2023-06-23T12:14:58.420Z,5.50
2023-06-23T12:16:09.960Z,5.85
2023-06-23T12:17:21.523Z,5.07
2023-06-23T12:18:33.503Z,6.28
2023-06-23T12:19:45.850Z,6.30
2023-06-23T12:21:00.894Z,6.47
2023-06-23T12:22:19.627Z,5.28
2023-06-23T12:23:34.570Z,5.90
2023-06-23T12:24:46.285Z,5.40
2023-06-23T12:25:58.737Z,5.75
2023-06-23T12:27:13.211Z,6.25
2023-06-23T12:28:28.094Z,6.18
2023-06-23T12:29:39.714Z,5.90
2023-06-23T12:30:51.395Z,6.07
2023-06-23T12:32:04.309Z,6.28
2023-06-23T12:33:17.514Z,5.78
2023-06-23T12:34:36.282Z,6.53
2023-06-23T12:36:04.209Z,6.63
2023-06-23T12:37:18.401Z,6.53
2023-06-23T12:38:31.523Z,6.82
2023-06-23T12:39:50.688Z,6.38
2023-06-23T12:41:20.788Z,6.32
2023-06-23T12:42:32.391Z,6.72
2023-06-23T12:43:44.199Z,6.47
2023-06-23T12:44:55.747Z,6.40
2023-06-23T12:46:09.647Z,6.70
2023-06-23T12:47:21.360Z,7.03
2023-06-23T12:48:33.059Z,6.57
2023-06-23T12:49:44.549Z,6.78
2023-06-23T12:50:56.195Z,6.18
2023-06-23T12:52:11.799Z,7.03
2023-06-23T12:53:23.396Z,6.50
2023-06-23T12:54:34.876Z,6.75
2023-06-23T12:55:46.596Z,7.35
2023-06-23T12:57:02.345Z,6.88
2023-06-23T12:58:13.808Z,7.65
2023-06-23T12:59:26.664Z,6.78
2023-06-23T13:00:38.283Z,7.22
2023-06-23T13:01:51.655Z,6.72
2023-06-23T13:03:06.000Z,6.80
2023-06-23T13:04:18.482Z,7.00
2023-06-23T13:05:32.161Z,6.32
2023-06-23T13:06:43.968Z,6.40
2023-06-23T13:07:55.601Z,6.75
2023-06-23T13:09:07.164Z,6.78
2023-06-23T13:10:18.692Z,6.47
2023-06-23T13:11:32.062Z,6.78
2023-06-23T13:12:43.919Z,6.63
2023-06-23T13:13:56.035Z,6.50
2023-06-23T13:15:07.734Z,6.40
2023-06-23T13:16:19.249Z,6.25
2023-06-23T13:17:31.718Z,6.88
2023-06-23T13:18:44.608Z,6.68
2023-06-23T13:19:57.160Z,6.65
2023-06-23T13:21:08.623Z,7.03
2023-06-23T13:22:20.122Z,6.97
2023-06-23T13:23:31.664Z,6.30
2023-06-23T13:24:43.124Z,6.68
2023-06-23T13:25:54.594Z,6.40
2023-06-23T13:27:09.256Z,6.13
2023-06-23T13:28:20.728Z,6.47
2023-06-23T13:29:32.229Z,7.43
2023-06-23T13:30:43.847Z,7.03
2023-06-23T13:31:55.506Z,6.63
2023-06-23T13:33:07.578Z,7.22
2023-06-23T13:34:19.085Z,6.78
2023-06-23T13:35:30.912Z,6.85
2023-06-23T13:36:42.584Z,6.38
2023-06-23T13:37:57.226Z,6.00
2023-06-23T13:39:08.703Z,6.50
2023-06-23T13:40:20.238Z,7.50
2023-06-23T13:41:31.963Z,6.40
2023-06-23T13:42:44.348Z,6.03
2023-06-23T13:43:55.916Z,5.95
2023-06-23T13:45:08.510Z,6.75
2023-06-23T13:46:20.246Z,5.97
2023-06-23T13:47:32.166Z,6.78
2023-06-23T13:48:43.617Z,6.40
2023-06-23T13:49:55.170Z,6.97
2023-06-23T13:51:06.848Z,8.45
2023-06-23T13:52:18.293Z,8.95
2023-06-23T13:53:30.657Z,7.22
2023-06-23T13:54:42.131Z,6.43
2023-06-23T13:55:54.205Z,6.57
2023-06-23T13:57:05.943Z,6.95
2023-06-23T13:58:17.430Z,7.13
2023-06-23T13:59:28.984Z,6.38
2023-06-23T14:00:40.937Z,7.13
2023-06-23T14:01:52.557Z,7.43
2023-06-23T14:03:04.161Z,7.40
2023-06-23T14:04:15.777Z,7.85
2023-06-23T14:05:30.027Z,7.43
2023-06-23T14:06:46.270Z,7.15
2023-06-23T14:07:57.812Z,6.65
2023-06-23T14:09:09.320Z,7.40
2023-06-23T14:10:20.888Z,6.20
2023-06-23T14:11:32.399Z,6.53
2023-06-23T14:12:44.949Z,6.57
2023-06-23T14:13:56.442Z,6.53
2023-06-23T14:15:08.319Z,6.53
2023-06-23T14:16:19.993Z,6.40
2023-06-23T14:17:31.537Z,6.82
2023-06-23T14:18:43.156Z,6.97
2023-06-23T14:19:54.786Z,6.90
2023-06-23T14:21:06.262Z,6.85
2023-06-23T14:22:17.854Z,7.93
2023-06-23T14:23:29.336Z,6.38
2023-06-23T14:24:40.898Z,6.85
2023-06-23T14:25:52.485Z,7.20
2023-06-23T14:27:04.129Z,7.18
2023-06-23T14:28:15.977Z,7.10
2023-06-23T14:29:27.488Z,8.20
2023-06-23T14:30:38.985Z,6.75
2023-06-23T14:31:50.475Z,6.38
2023-06-23T14:33:03.558Z,6.38
2023-06-23T14:34:15.205Z,7.15
2023-06-23T14:35:26.708Z,7.53
2023-06-23T14:36:38.247Z,6.75
2023-06-23T14:37:49.805Z,6.80
2023-06-23T14:39:01.621Z,6.63
2023-06-23T14:40:13.200Z,7.45
2023-06-23T14:41:24.771Z,7.75
2023-06-23T14:42:36.386Z,7.05
2023-06-23T14:43:47.901Z,7.53
2023-06-23T14:44:59.382Z,7.25
2023-06-23T14:46:10.913Z,7.15
2023-06-23T14:47:22.419Z,6.47
2023-06-23T14:48:33.999Z,6.50
2023-06-23T14:49:45.552Z,7.05
2023-06-23T14:50:57.130Z,6.68
2023-06-23T14:52:08.703Z,6.63
2023-06-23T14:53:20.251Z,6.43
2023-06-23T14:54:31.757Z,6.93
2023-06-23T14:55:43.236Z,6.60
2023-06-23T14:56:54.788Z,6.75
2023-06-23T14:58:06.833Z,6.90
2023-06-23T14:59:18.382Z,7.45
2023-06-23T15:00:30.156Z,6.90
2023-06-23T15:01:41.830Z,7.43
2023-06-23T15:02:53.506Z,7.10
2023-06-23T15:04:05.089Z,6.68
2023-06-23T15:05:16.753Z,7.10
2023-06-23T15:06:28.296Z,6.68
2023-06-23T15:07:39.821Z,7.03
2023-06-23T15:08:51.555Z,6.88
2023-06-23T15:10:03.768Z,6.80
2023-06-23T15:11:15.266Z,7.45
2023-06-23T15:12:26.757Z,6.90
2023-06-23T15:13:38.309Z,6.65
2023-06-23T15:14:50.020Z,7.10
2023-06-23T15:16:01.586Z,6.47
2023-06-23T15:17:13.288Z,6.88
2023-06-23T15:18:24.884Z,7.30
2023-06-23T15:19:37.094Z,6.75
2023-06-23T15:20:48.610Z,6.75
2023-06-23T15:22:00.142Z,7.50
2023-06-23T15:23:11.874Z,6.47
2023-06-23T15:24:23.394Z,7.22
2023-06-23T15:25:35.384Z,7.07
2023-06-23T15:26:47.232Z,6.78
2023-06-23T15:27:58.746Z,7.43
2023-06-23T15:29:10.246Z,7.18
2023-06-23T15:30:21.702Z,7.30
2023-06-23T15:31:33.643Z,7.53
2023-06-23T15:32:45.243Z,7.88
2023-06-23T15:33:56.742Z,7.15
2023-06-23T15:35:08.480Z,6.88
2023-06-23T15:36:20.039Z,6.78
2023-06-23T15:37:31.586Z,6.65
2023-06-23T15:38:43.272Z,6.85
2023-06-23T15:39:56.599Z,6.45
2023-06-23T15:41:08.102Z,6.72
2023-06-23T15:42:19.588Z,6.88
2023-06-23T15:43:31.099Z,6.35
2023-06-23T15:44:42.603Z,6.07
2023-06-23T15:45:54.043Z,6.60
2023-06-23T15:47:05.781Z,6.50
2023-06-23T15:48:17.739Z,6.50
2023-06-23T15:49:30.065Z,6.40
2023-06-23T15:50:41.609Z,6.82
2023-06-23T15:51:53.119Z,6.38
2023-06-23T15:53:05.041Z,7.10
2023-06-23T15:54:16.854Z,5.63
2023-06-23T15:55:28.533Z,7.05
2023-06-23T15:56:40.831Z,6.53
2023-06-23T15:57:53.389Z,6.47
2023-06-23T15:59:05.074Z,6.30
2023-06-23T16:00:16.863Z,6.63
2023-06-23T16:01:28.317Z,6.85
2023-06-23T16:02:39.864Z,6.32
2023-06-23T16:03:51.480Z,6.68
2023-06-23T16:05:03.173Z,6.90
2023-06-23T16:06:14.729Z,6.75
2023-06-23T16:07:26.329Z,5.60
2023-06-23T16:08:37.947Z,6.60
2023-06-23T16:09:49.429Z,7.22
2023-06-23T16:11:00.976Z,6.65
2023-06-23T16:12:12.458Z,7.07
2023-06-23T16:13:23.932Z,6.68
2023-06-23T16:14:35.451Z,6.88
2023-06-23T16:15:46.991Z,6.97